sensor_id;sensor_type;location;lat;lon;timestamp;temperature;humidity
21559;DHT22;10940;48.890;8.240;2023-03-23T00:01:55;14.70;99.90
21559;DHT22;10940;48.890;8.240;2023-03-23T00:04:20;14.70;99.90
21559;DHT22;10940;48.890;8.240;2023-03-23T00:06:46;14.70;99.90
21559;DHT22;10940;48.890;8.240;2023-03-23T00:09:13;14.70;99.90
21559;DHT22;10940;48.890;8.240;2023-03-23T00:11:41;14.70;99.90
21559;DHT22;10940;48.890;8.240;2023-03-23T00:14:07;14.70;99.90
21559;DHT22;10940;48.890;8.240;2023-03-23T00:16:38;14.70;99.90
21559;DHT22;10940;48.890;8.240;2023-03-23T00:19:08;14.70;99.90
21559;DHT22;10940;48.890;8.240;2023-03-23T00:21:38;14.80;99.90
21559;DHT22;10940;48.890;8.240;2023-03-23T00:24:10;14.80;99.90
21559;DHT22;10940;48.890;8.240;2023-03-23T00:26:38;14.80;99.90
21559;DHT22;10940;48.890;8.240;2023-03-23T00:29:13;14.80;99.90
21559;DHT22;10940;48.890;8.240;2023-03-23T00:31:39;14.70;99.90
21559;DHT22;10940;48.890;8.240;2023-03-23T00:34:06;14.80;99.90
21559;DHT22;10940;48.890;8.240;2023-03-23T00:36:33;14.80;99.90
21559;DHT22;10940;48.890;8.240;2023-03-23T00:39:01;14.80;99.90
21559;DHT22;10940;48.890;8.240;2023-03-23T00:41:28;14.70;99.90
21559;DHT22;10940;48.890;8.240;2023-03-23T00:43:58;14.70;99.90
21559;DHT22;10940;48.890;8.240;2023-03-23T00:46:26;14.70;99.90
21559;DHT22;10940;48.890;8.240;2023-03-23T00:48:53;14.60;99.90
21559;DHT22;10940;48.890;8.240;2023-03-23T00:51:20;14.60;99.90
21559;DHT22;10940;48.890;8.240;2023-03-23T00:53:46;14.60;99.90
21559;DHT22;10940;48.890;8.240;2023-03-23T00:56:12;14.60;99.90
21559;DHT22;10940;48.890;8.240;2023-03-23T00:58:38;14.60;99.90
21559;DHT22;10940;48.890;8.240;2023-03-23T01:01:04;14.60;99.90
21559;DHT22;10940;48.890;8.240;2023-03-23T01:03:30;14.60;99.90
21559;DHT22;10940;48.890;8.240;2023-03-23T01:05:56;14.60;99.90
21559;DHT22;10940;48.890;8.240;2023-03-23T01:08:22;14.70;99.90
21559;DHT22;10940;48.890;8.240;2023-03-23T01:10:49;14.70;99.90
21559;DHT22;10940;48.890;8.240;2023-03-23T01:13:15;14.70;99.90
21559;DHT22;10940;48.890;8.240;2023-03-23T01:15:41;14.80;99.90
21559;DHT22;10940;48.890;8.240;2023-03-23T01:18:08;14.80;99.90
21559;DHT22;10940;48.890;8.240;2023-03-23T01:20:35;14.80;99.90
21559;DHT22;10940;48.890;8.240;2023-03-23T01:23:02;14.70;99.90
21559;DHT22;10940;48.890;8.240;2023-03-23T01:25:30;14.80;99.90
21559;DHT22;10940;48.890;8.240;2023-03-23T01:27:56;14.80;99.90
21559;DHT22;10940;48.890;8.240;2023-03-23T01:30:22;14.80;99.90
21559;DHT22;10940;48.890;8.240;2023-03-23T01:32:47;14.80;99.90
21559;DHT22;10940;48.890;8.240;2023-03-23T01:35:13;14.80;99.90
21559;DHT22;10940;48.890;8.240;2023-03-23T01:37:39;14.80;99.90
21559;DHT22;10940;48.890;8.240;2023-03-23T01:40:05;14.90;99.90
21559;DHT22;10940;48.890;8.240;2023-03-23T01:42:33;14.90;99.90
21559;DHT22;10940;48.890;8.240;2023-03-23T01:45:34;14.90;99.90
21559;DHT22;10940;48.890;8.240;2023-03-23T01:50:45;15.00;99.90
21559;DHT22;10940;48.890;8.240;2023-03-23T01:53:13;15.00;99.90
21559;DHT22;10940;48.890;8.240;2023-03-23T01:55:41;15.00;99.90
21559;DHT22;10940;48.890;8.240;2023-03-23T01:58:09;15.10;99.90
21559;DHT22;10940;48.890;8.240;2023-03-23T02:00:37;15.10;99.90
21559;DHT22;10940;48.890;8.240;2023-03-23T02:03:06;15.20;99.90
21559;DHT22;10940;48.890;8.240;2023-03-23T02:05:37;15.20;99.90
21559;DHT22;10940;48.890;8.240;2023-03-23T02:08:04;15.30;99.90
21559;DHT22;10940;48.890;8.240;2023-03-23T02:10:32;15.20;99.90
21559;DHT22;10940;48.890;8.240;2023-03-23T02:12:59;15.30;99.90
21559;DHT22;10940;48.890;8.240;2023-03-23T02:15:32;15.30;99.90
21559;DHT22;10940;48.890;8.240;2023-03-23T02:24:02;15.40;99.90
21559;DHT22;10940;48.890;8.240;2023-03-23T02:32:32;15.40;99.90
21559;DHT22;10940;48.890;8.240;2023-03-23T02:35:30;15.40;99.90
21559;DHT22;10940;48.890;8.240;2023-03-23T02:38:01;15.40;99.90
21559;DHT22;10940;48.890;8.240;2023-03-23T02:40:39;15.40;99.90
21559;DHT22;10940;48.890;8.240;2023-03-23T02:43:09;15.40;99.90
21559;DHT22;10940;48.890;8.240;2023-03-23T02:45:37;15.40;99.90
21559;DHT22;10940;48.890;8.240;2023-03-23T02:48:04;15.40;99.90
21559;DHT22;10940;48.890;8.240;2023-03-23T02:50:31;15.40;99.90
21559;DHT22;10940;48.890;8.240;2023-03-23T02:52:58;15.40;99.90
21559;DHT22;10940;48.890;8.240;2023-03-23T02:55:27;15.40;99.90
21559;DHT22;10940;48.890;8.240;2023-03-23T02:57:54;15.30;99.90
21559;DHT22;10940;48.890;8.240;2023-03-23T03:00:20;15.40;99.90
21559;DHT22;10940;48.890;8.240;2023-03-23T03:02:49;15.40;99.90
21559;DHT22;10940;48.890;8.240;2023-03-23T03:08:12;15.60;99.90
21559;DHT22;10940;48.890;8.240;2023-03-23T03:10:54;15.60;99.90
21559;DHT22;10940;48.890;8.240;2023-03-23T03:13:32;15.70;99.90
21559;DHT22;10940;48.890;8.240;2023-03-23T03:21:23;15.70;99.90
21559;DHT22;10940;48.890;8.240;2023-03-23T03:23:53;15.70;99.90
21559;DHT22;10940;48.890;8.240;2023-03-23T03:26:21;15.60;99.90
21559;DHT22;10940;48.890;8.240;2023-03-23T03:28:52;15.60;99.90
21559;DHT22;10940;48.890;8.240;2023-03-23T03:31:21;15.60;99.90
21559;DHT22;10940;48.890;8.240;2023-03-23T03:33:47;15.60;99.90
21559;DHT22;10940;48.890;8.240;2023-03-23T03:36:26;15.60;99.90
21559;DHT22;10940;48.890;8.240;2023-03-23T03:38:52;15.50;99.90
21559;DHT22;10940;48.890;8.240;2023-03-23T03:41:20;15.60;99.90
21559;DHT22;10940;48.890;8.240;2023-03-23T03:43:45;15.50;99.90
21559;DHT22;10940;48.890;8.240;2023-03-23T03:46:11;15.50;99.90
21559;DHT22;10940;48.890;8.240;2023-03-23T03:48:37;15.40;99.90
21559;DHT22;10940;48.890;8.240;2023-03-23T03:51:02;15.50;99.90
21559;DHT22;10940;48.890;8.240;2023-03-23T03:53:29;15.50;99.90
21559;DHT22;10940;48.890;8.240;2023-03-23T03:55:56;15.50;99.90
21559;DHT22;10940;48.890;8.240;2023-03-23T03:58:22;15.50;99.90
21559;DHT22;10940;48.890;8.240;2023-03-23T04:00:49;15.50;99.90
21559;DHT22;10940;48.890;8.240;2023-03-23T04:03:15;15.50;99.90
21559;DHT22;10940;48.890;8.240;2023-03-23T04:05:42;15.50;99.90
21559;DHT22;10940;48.890;8.240;2023-03-23T04:08:10;15.40;99.90
21559;DHT22;10940;48.890;8.240;2023-03-23T04:10:36;15.40;99.90
21559;DHT22;10940;48.890;8.240;2023-03-23T04:13:02;15.40;99.90
21559;DHT22;10940;48.890;8.240;2023-03-23T04:15:30;15.40;99.90
21559;DHT22;10940;48.890;8.240;2023-03-23T04:17:56;15.40;99.90
21559;DHT22;10940;48.890;8.240;2023-03-23T04:20:22;15.50;99.90
21559;DHT22;10940;48.890;8.240;2023-03-23T04:22:48;15.40;99.90
21559;DHT22;10940;48.890;8.240;2023-03-23T04:25:16;15.40;99.90
21559;DHT22;10940;48.890;8.240;2023-03-23T04:27:43;15.50;99.90
21559;DHT22;10940;48.890;8.240;2023-03-23T04:30:10;15.50;99.90
21559;DHT22;10940;48.890;8.240;2023-03-23T04:32:38;15.40;99.90
21559;DHT22;10940;48.890;8.240;2023-03-23T04:35:06;15.40;99.90
21559;DHT22;10940;48.890;8.240;2023-03-23T04:37:32;15.50;99.90
21559;DHT22;10940;48.890;8.240;2023-03-23T04:39:59;15.50;99.90
21559;DHT22;10940;48.890;8.240;2023-03-23T04:42:31;15.40;99.90
21559;DHT22;10940;48.890;8.240;2023-03-23T04:44:58;15.40;99.90
21559;DHT22;10940;48.890;8.240;2023-03-23T04:47:25;15.40;99.90
21559;DHT22;10940;48.890;8.240;2023-03-23T04:49:58;15.40;99.90
21559;DHT22;10940;48.890;8.240;2023-03-23T04:52:27;15.30;99.90
21559;DHT22;10940;48.890;8.240;2023-03-23T04:54:54;15.30;99.90
21559;DHT22;10940;48.890;8.240;2023-03-23T04:57:22;15.30;99.90
21559;DHT22;10940;48.890;8.240;2023-03-23T04:59:47;15.20;99.90
21559;DHT22;10940;48.890;8.240;2023-03-23T05:02:13;15.20;99.90
21559;DHT22;10940;48.890;8.240;2023-03-23T05:04:40;15.10;99.90
21559;DHT22;10940;48.890;8.240;2023-03-23T05:07:07;15.10;99.90
21559;DHT22;10940;48.890;8.240;2023-03-23T05:09:33;15.10;99.90
21559;DHT22;10940;48.890;8.240;2023-03-23T05:12:04;15.00;99.90
21559;DHT22;10940;48.890;8.240;2023-03-23T05:14:30;14.90;99.90
21559;DHT22;10940;48.890;8.240;2023-03-23T05:16:56;14.80;99.90
21559;DHT22;10940;48.890;8.240;2023-03-23T05:19:22;14.80;99.90
21559;DHT22;10940;48.890;8.240;2023-03-23T05:21:47;14.60;99.90
21559;DHT22;10940;48.890;8.240;2023-03-23T05:24:13;14.50;99.90
21559;DHT22;10940;48.890;8.240;2023-03-23T05:26:39;14.40;99.90
21559;DHT22;10940;48.890;8.240;2023-03-23T05:29:04;14.30;99.90
21559;DHT22;10940;48.890;8.240;2023-03-23T05:31:30;14.20;99.90
21559;DHT22;10940;48.890;8.240;2023-03-23T05:33:55;14.20;99.90
21559;DHT22;10940;48.890;8.240;2023-03-23T05:36:21;14.20;99.90
21559;DHT22;10940;48.890;8.240;2023-03-23T05:38:48;14.00;99.90
21559;DHT22;10940;48.890;8.240;2023-03-23T05:41:16;14.00;99.90
21559;DHT22;10940;48.890;8.240;2023-03-23T05:43:41;13.90;99.90
21559;DHT22;10940;48.890;8.240;2023-03-23T05:46:07;13.90;99.90
21559;DHT22;10940;48.890;8.240;2023-03-23T05:48:34;13.90;99.90
21559;DHT22;10940;48.890;8.240;2023-03-23T05:50:59;13.80;99.90
21559;DHT22;10940;48.890;8.240;2023-03-23T05:53:25;13.80;99.90
21559;DHT22;10940;48.890;8.240;2023-03-23T05:55:51;13.70;99.90
21559;DHT22;10940;48.890;8.240;2023-03-23T05:58:18;13.60;99.90
21559;DHT22;10940;48.890;8.240;2023-03-23T06:00:44;13.60;99.90
21559;DHT22;10940;48.890;8.240;2023-03-23T06:03:11;13.50;99.90
21559;DHT22;10940;48.890;8.240;2023-03-23T06:05:43;13.50;99.90
21559;DHT22;10940;48.890;8.240;2023-03-23T06:08:09;13.50;99.90
21559;DHT22;10940;48.890;8.240;2023-03-23T06:10:35;13.40;99.90
21559;DHT22;10940;48.890;8.240;2023-03-23T06:13:02;13.40;99.90
21559;DHT22;10940;48.890;8.240;2023-03-23T06:15:28;13.40;99.90
21559;DHT22;10940;48.890;8.240;2023-03-23T06:17:58;13.30;99.90
21559;DHT22;10940;48.890;8.240;2023-03-23T06:20:24;13.30;99.90
21559;DHT22;10940;48.890;8.240;2023-03-23T06:22:50;13.30;99.90
21559;DHT22;10940;48.890;8.240;2023-03-23T06:25:17;13.30;99.90
21559;DHT22;10940;48.890;8.240;2023-03-23T06:27:43;13.30;99.90
21559;DHT22;10940;48.890;8.240;2023-03-23T06:30:11;13.30;99.90
21559;DHT22;10940;48.890;8.240;2023-03-23T06:32:37;13.30;99.90
21559;DHT22;10940;48.890;8.240;2023-03-23T06:35:04;13.40;99.90
21559;DHT22;10940;48.890;8.240;2023-03-23T06:37:30;13.40;99.90
21559;DHT22;10940;48.890;8.240;2023-03-23T06:39:56;13.50;99.90
21559;DHT22;10940;48.890;8.240;2023-03-23T06:42:22;13.50;99.90
21559;DHT22;10940;48.890;8.240;2023-03-23T06:44:50;13.50;99.90
21559;DHT22;10940;48.890;8.240;2023-03-23T06:47:16;13.50;99.90
21559;DHT22;10940;48.890;8.240;2023-03-23T06:49:41;13.40;99.90
21559;DHT22;10940;48.890;8.240;2023-03-23T06:52:07;13.40;99.90
21559;DHT22;10940;48.890;8.240;2023-03-23T06:54:33;13.40;99.90
21559;DHT22;10940;48.890;8.240;2023-03-23T06:56:59;13.40;99.90
21559;DHT22;10940;48.890;8.240;2023-03-23T06:59:24;13.40;99.90
21559;DHT22;10940;48.890;8.240;2023-03-23T07:01:50;13.40;99.90
21559;DHT22;10940;48.890;8.240;2023-03-23T07:04:16;13.30;99.90
21559;DHT22;10940;48.890;8.240;2023-03-23T07:06:42;13.30;99.90
21559;DHT22;10940;48.890;8.240;2023-03-23T07:09:07;13.40;99.90
21559;DHT22;10940;48.890;8.240;2023-03-23T07:11:33;13.40;99.90
21559;DHT22;10940;48.890;8.240;2023-03-23T07:13:58;13.40;99.90
21559;DHT22;10940;48.890;8.240;2023-03-23T07:16:24;13.40;99.90
21559;DHT22;10940;48.890;8.240;2023-03-23T07:18:51;13.40;99.90
21559;DHT22;10940;48.890;8.240;2023-03-23T07:21:16;13.40;99.90
21559;DHT22;10940;48.890;8.240;2023-03-23T07:23:42;13.30;99.90
21559;DHT22;10940;48.890;8.240;2023-03-23T07:26:08;13.30;99.90
21559;DHT22;10940;48.890;8.240;2023-03-23T07:28:33;13.30;99.90
21559;DHT22;10940;48.890;8.240;2023-03-23T07:30:59;13.30;99.90
21559;DHT22;10940;48.890;8.240;2023-03-23T07:33:25;13.30;99.90
21559;DHT22;10940;48.890;8.240;2023-03-23T07:35:52;13.30;99.90
21559;DHT22;10940;48.890;8.240;2023-03-23T07:38:17;13.30;99.90
21559;DHT22;10940;48.890;8.240;2023-03-23T07:40:43;13.30;99.90
21559;DHT22;10940;48.890;8.240;2023-03-23T07:43:09;13.30;99.90
21559;DHT22;10940;48.890;8.240;2023-03-23T07:45:34;13.30;99.90
21559;DHT22;10940;48.890;8.240;2023-03-23T07:48:00;13.40;99.90
21559;DHT22;10940;48.890;8.240;2023-03-23T07:50:26;13.40;99.90
21559;DHT22;10940;48.890;8.240;2023-03-23T07:52:56;13.50;99.90
21559;DHT22;10940;48.890;8.240;2023-03-23T07:55:23;13.60;99.90
21559;DHT22;10940;48.890;8.240;2023-03-23T07:57:50;13.70;99.90
21559;DHT22;10940;48.890;8.240;2023-03-23T08:00:17;13.70;99.90
21559;DHT22;10940;48.890;8.240;2023-03-23T08:02:51;13.80;99.90
21559;DHT22;10940;48.890;8.240;2023-03-23T08:05:17;14.00;99.90
21559;DHT22;10940;48.890;8.240;2023-03-23T08:07:43;14.00;99.90
21559;DHT22;10940;48.890;8.240;2023-03-23T08:10:11;14.00;99.90
21559;DHT22;10940;48.890;8.240;2023-03-23T08:12:41;14.10;99.90
21559;DHT22;10940;48.890;8.240;2023-03-23T08:15:09;14.20;99.90
21559;DHT22;10940;48.890;8.240;2023-03-23T08:17:38;14.20;99.90
21559;DHT22;10940;48.890;8.240;2023-03-23T08:20:06;14.20;99.90
21559;DHT22;10940;48.890;8.240;2023-03-23T08:22:42;14.30;99.90
21559;DHT22;10940;48.890;8.240;2023-03-23T08:25:12;14.30;99.90
21559;DHT22;10940;48.890;8.240;2023-03-23T08:27:38;14.40;99.90
21559;DHT22;10940;48.890;8.240;2023-03-23T08:30:10;14.50;99.90
21559;DHT22;10940;48.890;8.240;2023-03-23T08:32:36;14.50;99.90
21559;DHT22;10940;48.890;8.240;2023-03-23T08:35:02;14.50;99.90
21559;DHT22;10940;48.890;8.240;2023-03-23T08:37:28;14.60;99.90
21559;DHT22;10940;48.890;8.240;2023-03-23T08:39:55;14.70;99.90
21559;DHT22;10940;48.890;8.240;2023-03-23T08:42:23;14.70;99.90
21559;DHT22;10940;48.890;8.240;2023-03-23T08:44:49;14.80;99.90
21559;DHT22;10940;48.890;8.240;2023-03-23T08:47:15;14.80;99.90
21559;DHT22;10940;48.890;8.240;2023-03-23T08:49:41;14.80;99.90
21559;DHT22;10940;48.890;8.240;2023-03-23T08:52:07;14.80;99.90
21559;DHT22;10940;48.890;8.240;2023-03-23T08:54:34;14.80;99.90
21559;DHT22;10940;48.890;8.240;2023-03-23T08:57:01;14.70;99.90
21559;DHT22;10940;48.890;8.240;2023-03-23T08:59:27;14.70;99.90
21559;DHT22;10940;48.890;8.240;2023-03-23T09:01:53;14.70;99.90
21559;DHT22;10940;48.890;8.240;2023-03-23T09:04:18;14.70;99.90
21559;DHT22;10940;48.890;8.240;2023-03-23T09:06:44;14.60;99.90
21559;DHT22;10940;48.890;8.240;2023-03-23T09:09:11;14.60;99.90
21559;DHT22;10940;48.890;8.240;2023-03-23T09:11:37;14.70;99.90
21559;DHT22;10940;48.890;8.240;2023-03-23T09:14:05;14.70;99.90
21559;DHT22;10940;48.890;8.240;2023-03-23T09:16:32;14.70;99.90
21559;DHT22;10940;48.890;8.240;2023-03-23T09:18:58;14.70;99.90
21559;DHT22;10940;48.890;8.240;2023-03-23T09:21:25;14.70;99.90
21559;DHT22;10940;48.890;8.240;2023-03-23T09:23:52;14.70;99.90
21559;DHT22;10940;48.890;8.240;2023-03-23T09:26:18;14.70;99.90
21559;DHT22;10940;48.890;8.240;2023-03-23T09:28:44;14.60;99.90
21559;DHT22;10940;48.890;8.240;2023-03-23T09:31:11;14.50;99.90
21559;DHT22;10940;48.890;8.240;2023-03-23T09:33:37;14.40;99.90
21559;DHT22;10940;48.890;8.240;2023-03-23T09:36:04;14.30;99.90
21559;DHT22;10940;48.890;8.240;2023-03-23T09:38:31;14.10;99.90
21559;DHT22;10940;48.890;8.240;2023-03-23T09:44:02;13.90;99.90
21559;DHT22;10940;48.890;8.240;2023-03-23T09:49:13;13.90;99.90
21559;DHT22;10940;48.890;8.240;2023-03-23T09:51:50;13.90;99.90
21559;DHT22;10940;48.890;8.240;2023-03-23T09:54:30;14.00;99.90
21559;DHT22;10940;48.890;8.240;2023-03-23T09:56:58;14.00;99.90
21559;DHT22;10940;48.890;8.240;2023-03-23T09:59:34;14.00;99.90
21559;DHT22;10940;48.890;8.240;2023-03-23T10:02:33;14.00;99.90
21559;DHT22;10940;48.890;8.240;2023-03-23T10:05:40;14.00;99.90
21559;DHT22;10940;48.890;8.240;2023-03-23T10:08:15;14.00;99.90
21559;DHT22;10940;48.890;8.240;2023-03-23T10:10:58;14.00;99.90
21559;DHT22;10940;48.890;8.240;2023-03-23T10:13:39;14.00;99.90
21559;DHT22;10940;48.890;8.240;2023-03-23T10:16:14;14.00;99.90
21559;DHT22;10940;48.890;8.240;2023-03-23T10:18:43;14.00;99.90
21559;DHT22;10940;48.890;8.240;2023-03-23T10:21:16;14.00;99.90
21559;DHT22;10940;48.890;8.240;2023-03-23T10:23:54;14.00;99.90
21559;DHT22;10940;48.890;8.240;2023-03-23T10:26:40;14.00;99.90
21559;DHT22;10940;48.890;8.240;2023-03-23T10:31:58;13.90;99.90
21559;DHT22;10940;48.890;8.240;2023-03-23T10:37:22;13.80;99.90
21559;DHT22;10940;48.890;8.240;2023-03-23T10:42:26;13.70;99.90
21559;DHT22;10940;48.890;8.240;2023-03-23T10:44:53;13.70;99.90
21559;DHT22;10940;48.890;8.240;2023-03-23T10:47:19;13.70;99.90
21559;DHT22;10940;48.890;8.240;2023-03-23T10:49:51;13.70;99.90
21559;DHT22;10940;48.890;8.240;2023-03-23T10:52:35;13.80;99.90
21559;DHT22;10940;48.890;8.240;2023-03-23T10:55:12;13.80;99.90
21559;DHT22;10940;48.890;8.240;2023-03-23T10:57:44;13.90;99.90
21559;DHT22;10940;48.890;8.240;2023-03-23T11:00:25;14.00;99.90
21559;DHT22;10940;48.890;8.240;2023-03-23T11:02:58;14.10;99.90
21559;DHT22;10940;48.890;8.240;2023-03-23T11:05:27;14.20;99.90
21559;DHT22;10940;48.890;8.240;2023-03-23T11:07:58;14.20;99.90
21559;DHT22;10940;48.890;8.240;2023-03-23T11:11:14;14.20;99.90
21559;DHT22;10940;48.890;8.240;2023-03-23T11:13:17;14.10;99.90
21559;DHT22;10940;48.890;8.240;2023-03-23T11:15:45;14.10;99.90
21559;DHT22;10940;48.890;8.240;2023-03-23T11:18:22;14.20;99.90
21559;DHT22;10940;48.890;8.240;2023-03-23T11:20:57;14.10;99.90
21559;DHT22;10940;48.890;8.240;2023-03-23T11:23:38;14.20;99.90
21559;DHT22;10940;48.890;8.240;2023-03-23T11:26:23;14.20;99.90
21559;DHT22;10940;48.890;8.240;2023-03-23T11:29:06;14.30;99.90
21559;DHT22;10940;48.890;8.240;2023-03-23T11:31:41;14.40;99.90
21559;DHT22;10940;48.890;8.240;2023-03-23T11:34:16;14.50;99.90
21559;DHT22;10940;48.890;8.240;2023-03-23T11:36:50;14.70;99.90
21559;DHT22;10940;48.890;8.240;2023-03-23T11:42:23;14.80;99.90
21559;DHT22;10940;48.890;8.240;2023-03-23T11:44:53;14.90;99.90
21559;DHT22;10940;48.890;8.240;2023-03-23T11:47:39;15.00;99.90
21559;DHT22;10940;48.890;8.240;2023-03-23T11:50:14;15.10;99.90
21559;DHT22;10940;48.890;8.240;2023-03-23T11:55:23;15.30;99.90
21559;DHT22;10940;48.890;8.240;2023-03-23T11:57:51;15.30;99.90
21559;DHT22;10940;48.890;8.240;2023-03-23T12:00:21;15.40;99.90
21559;DHT22;10940;48.890;8.240;2023-03-23T12:02:56;15.40;99.90
21559;DHT22;10940;48.890;8.240;2023-03-23T12:08:52;15.40;99.90
21559;DHT22;10940;48.890;8.240;2023-03-23T12:11:36;15.60;99.90
21559;DHT22;10940;48.890;8.240;2023-03-23T12:14:07;15.70;99.90
21559;DHT22;10940;48.890;8.240;2023-03-23T12:22:24;15.80;99.90
21559;DHT22;10940;48.890;8.240;2023-03-23T12:27:56;15.80;99.90
21559;DHT22;10940;48.890;8.240;2023-03-23T12:46:45;15.70;99.90
21559;DHT22;10940;48.890;8.240;2023-03-23T12:51:59;15.70;99.90
21559;DHT22;10940;48.890;8.240;2023-03-23T12:54:35;15.60;99.90
21559;DHT22;10940;48.890;8.240;2023-03-23T12:57:19;15.70;99.90
21559;DHT22;10940;48.890;8.240;2023-03-23T12:59:55;15.80;99.90
21559;DHT22;10940;48.890;8.240;2023-03-23T13:02:34;15.80;99.90
21559;DHT22;10940;48.890;8.240;2023-03-23T13:05:09;15.90;99.90
21559;DHT22;10940;48.890;8.240;2023-03-23T13:07:43;16.00;99.90
21559;DHT22;10940;48.890;8.240;2023-03-23T13:10:28;16.10;99.90
21559;DHT22;10940;48.890;8.240;2023-03-23T13:12:55;16.10;99.90
21559;DHT22;10940;48.890;8.240;2023-03-23T13:20:54;16.20;99.90
21559;DHT22;10940;48.890;8.240;2023-03-23T13:23:25;16.20;99.90
21559;DHT22;10940;48.890;8.240;2023-03-23T13:26:05;16.10;99.90
21559;DHT22;10940;48.890;8.240;2023-03-23T13:36:41;16.20;99.90
21559;DHT22;10940;48.890;8.240;2023-03-23T13:39:30;16.30;99.90
21559;DHT22;10940;48.890;8.240;2023-03-23T13:57:55;16.80;99.90
21559;DHT22;10940;48.890;8.240;2023-03-23T14:05:44;17.00;99.90
21559;DHT22;10940;48.890;8.240;2023-03-23T14:08:13;17.00;99.90
21559;DHT22;10940;48.890;8.240;2023-03-23T14:10:49;17.10;99.90
21559;DHT22;10940;48.890;8.240;2023-03-23T14:18:40;17.30;99.90
21559;DHT22;10940;48.890;8.240;2023-03-23T14:21:13;17.40;99.90
21559;DHT22;10940;48.890;8.240;2023-03-23T14:23:39;17.40;99.90
21559;DHT22;10940;48.890;8.240;2023-03-23T14:26:12;17.40;99.90
21559;DHT22;10940;48.890;8.240;2023-03-23T14:28:43;17.40;99.90
21559;DHT22;10940;48.890;8.240;2023-03-23T14:31:18;17.40;99.90
21559;DHT22;10940;48.890;8.240;2023-03-23T14:33:45;17.40;99.90
21559;DHT22;10940;48.890;8.240;2023-03-23T14:36:11;17.40;99.90
21559;DHT22;10940;48.890;8.240;2023-03-23T14:38:36;17.20;99.90
21559;DHT22;10940;48.890;8.240;2023-03-23T14:41:05;17.20;99.90
21559;DHT22;10940;48.890;8.240;2023-03-23T14:43:33;17.20;99.90
21559;DHT22;10940;48.890;8.240;2023-03-23T14:46:01;17.10;99.90
21559;DHT22;10940;48.890;8.240;2023-03-23T14:48:27;17.10;99.90
21559;DHT22;10940;48.890;8.240;2023-03-23T14:51:04;17.00;99.90
21559;DHT22;10940;48.890;8.240;2023-03-23T14:53:36;16.90;99.90
21559;DHT22;10940;48.890;8.240;2023-03-23T14:56:19;16.90;99.90
21559;DHT22;10940;48.890;8.240;2023-03-23T14:58:49;16.90;99.90
21559;DHT22;10940;48.890;8.240;2023-03-23T15:01:27;16.80;99.90
21559;DHT22;10940;48.890;8.240;2023-03-23T15:06:34;16.70;99.90
21559;DHT22;10940;48.890;8.240;2023-03-23T15:09:05;16.80;99.90
21559;DHT22;10940;48.890;8.240;2023-03-23T15:11:33;16.70;99.90
21559;DHT22;10940;48.890;8.240;2023-03-23T15:14:07;16.60;99.90
21559;DHT22;10940;48.890;8.240;2023-03-23T15:16:34;16.70;99.90
21559;DHT22;10940;48.890;8.240;2023-03-23T15:19:04;16.60;99.90
21559;DHT22;10940;48.890;8.240;2023-03-23T15:21:32;16.60;99.90
21559;DHT22;10940;48.890;8.240;2023-03-23T15:24:01;16.50;99.90
21559;DHT22;10940;48.890;8.240;2023-03-23T15:26:33;16.40;99.90
21559;DHT22;10940;48.890;8.240;2023-03-23T15:29:11;16.30;99.90
21559;DHT22;10940;48.890;8.240;2023-03-23T15:31:59;16.30;99.90
21559;DHT22;10940;48.890;8.240;2023-03-23T15:34:34;16.30;99.90
21559;DHT22;10940;48.890;8.240;2023-03-23T15:37:06;16.30;99.90
21559;DHT22;10940;48.890;8.240;2023-03-23T15:39:41;16.30;99.90
21559;DHT22;10940;48.890;8.240;2023-03-23T15:42:30;16.30;99.90
21559;DHT22;10940;48.890;8.240;2023-03-23T15:44:58;16.20;99.90
21559;DHT22;10940;48.890;8.240;2023-03-23T15:47:53;16.20;99.90
21559;DHT22;10940;48.890;8.240;2023-03-23T15:52:51;16.20;99.90
21559;DHT22;10940;48.890;8.240;2023-03-23T15:55:28;16.10;99.90
21559;DHT22;10940;48.890;8.240;2023-03-23T15:57:57;16.10;99.90
21559;DHT22;10940;48.890;8.240;2023-03-23T16:00:25;16.10;99.90
21559;DHT22;10940;48.890;8.240;2023-03-23T16:02:58;16.00;99.90
21559;DHT22;10940;48.890;8.240;2023-03-23T16:05:24;15.90;99.90
21559;DHT22;10940;48.890;8.240;2023-03-23T16:07:50;15.80;99.90
21559;DHT22;10940;48.890;8.240;2023-03-23T16:10:18;15.70;99.90
21559;DHT22;10940;48.890;8.240;2023-03-23T16:12:45;15.60;99.90
21559;DHT22;10940;48.890;8.240;2023-03-23T16:15:12;15.60;99.90
21559;DHT22;10940;48.890;8.240;2023-03-23T16:17:37;15.60;99.90
21559;DHT22;10940;48.890;8.240;2023-03-23T16:20:30;15.60;99.90
21559;DHT22;10940;48.890;8.240;2023-03-23T16:22:57;15.50;99.90
21559;DHT22;10940;48.890;8.240;2023-03-23T16:25:23;15.40;99.90
21559;DHT22;10940;48.890;8.240;2023-03-23T16:27:48;15.40;99.90
21559;DHT22;10940;48.890;8.240;2023-03-23T16:30:21;15.40;99.90
21559;DHT22;10940;48.890;8.240;2023-03-23T16:32:47;15.30;99.90
21559;DHT22;10940;48.890;8.240;2023-03-23T16:35:14;15.30;99.90
21559;DHT22;10940;48.890;8.240;2023-03-23T16:37:52;15.30;99.90
21559;DHT22;10940;48.890;8.240;2023-03-23T16:40:19;15.30;99.90
21559;DHT22;10940;48.890;8.240;2023-03-23T16:42:45;15.40;99.90
21559;DHT22;10940;48.890;8.240;2023-03-23T16:45:12;15.40;99.90
21559;DHT22;10940;48.890;8.240;2023-03-23T16:47:39;15.50;99.90
21559;DHT22;10940;48.890;8.240;2023-03-23T16:50:07;15.50;99.90
21559;DHT22;10940;48.890;8.240;2023-03-23T16:52:33;15.40;99.90
21559;DHT22;10940;48.890;8.240;2023-03-23T16:54:59;15.40;99.90
21559;DHT22;10940;48.890;8.240;2023-03-23T16:57:25;15.40;99.90
21559;DHT22;10940;48.890;8.240;2023-03-23T16:59:51;15.30;99.90
21559;DHT22;10940;48.890;8.240;2023-03-23T17:02:17;15.30;99.90
21559;DHT22;10940;48.890;8.240;2023-03-23T17:04:44;15.20;99.90
21559;DHT22;10940;48.890;8.240;2023-03-23T17:07:11;15.10;99.90
21559;DHT22;10940;48.890;8.240;2023-03-23T17:09:37;15.10;99.90
21559;DHT22;10940;48.890;8.240;2023-03-23T17:12:03;15.10;99.90
21559;DHT22;10940;48.890;8.240;2023-03-23T17:14:29;15.10;99.90
21559;DHT22;10940;48.890;8.240;2023-03-23T17:16:54;15.10;99.90
21559;DHT22;10940;48.890;8.240;2023-03-23T17:19:21;15.00;99.90
21559;DHT22;10940;48.890;8.240;2023-03-23T17:21:46;15.00;99.90
21559;DHT22;10940;48.890;8.240;2023-03-23T17:24:12;15.10;99.90
21559;DHT22;10940;48.890;8.240;2023-03-23T17:26:38;15.20;99.90
21559;DHT22;10940;48.890;8.240;2023-03-23T17:29:04;15.30;99.90
21559;DHT22;10940;48.890;8.240;2023-03-23T17:31:29;15.50;99.90
21559;DHT22;10940;48.890;8.240;2023-03-23T17:33:55;15.70;99.90
21559;DHT22;10940;48.890;8.240;2023-03-23T17:36:22;15.80;99.90
21559;DHT22;10940;48.890;8.240;2023-03-23T17:38:49;15.90;99.90
21559;DHT22;10940;48.890;8.240;2023-03-23T17:41:14;15.90;99.90
21559;DHT22;10940;48.890;8.240;2023-03-23T17:43:40;16.00;99.90